createdAt,value
2023-03-16T00:02:19.425Z,3.77
2023-03-16T00:04:49.087Z,2.90
2023-03-16T00:07:18.885Z,4.80
2023-03-16T00:09:47.617Z,5.20
2023-03-16T00:12:18.077Z,5.70
2023-03-16T00:14:48.245Z,4.70
2023-03-16T00:17:19.920Z,7.57
2023-03-16T00:19:54.746Z,5.10
2023-03-16T00:22:24.336Z,4.60
2023-03-16T00:24:54.157Z,5.17
2023-03-16T00:27:24.098Z,5.23
2023-03-16T00:29:55.701Z,5.30
2023-03-16T00:32:26.322Z,4.87
2023-03-16T00:34:56.279Z,5.83
2023-03-16T00:37:25.656Z,5.23
2023-03-16T00:39:56.358Z,5.43
2023-03-16T00:42:27.572Z,6.30
2023-03-16T00:44:57.546Z,7.77
2023-03-16T00:47:28.388Z,6.73
2023-03-16T00:49:58.296Z,9.53
2023-03-16T00:52:27.800Z,7.70
2023-03-16T00:54:57.224Z,7.50
2023-03-16T00:57:27.765Z,9.00
2023-03-16T00:59:57.325Z,9.30
2023-03-16T01:02:26.086Z,11.83
2023-03-16T01:04:55.626Z,10.00
2023-03-16T01:07:25.236Z,11.23
2023-03-16T01:09:53.544Z,11.07
2023-03-16T01:12:21.978Z,10.23
2023-03-16T01:14:50.633Z,11.50
2023-03-16T01:17:19.298Z,11.63
2023-03-16T01:19:49.945Z,10.90
2023-03-16T01:22:18.280Z,11.57
2023-03-16T01:24:48.428Z,9.83
2023-03-16T01:27:17.404Z,11.03
2023-03-16T01:29:45.478Z,10.80
2023-03-16T01:32:14.461Z,11.33
2023-03-16T01:37:13.854Z,11.20
2023-03-16T01:39:54.578Z,11.53
2023-03-16T01:42:22.993Z,11.47
2023-03-16T01:44:54.411Z,10.83
2023-03-16T01:47:24.136Z,13.27
2023-03-16T01:49:54.988Z,10.67
2023-03-16T01:52:30.222Z,11.80
2023-03-16T02:00:10.700Z,11.47
2023-03-16T02:02:57.515Z,12.30
2023-03-16T02:05:44.223Z,12.17
2023-03-16T02:08:16.269Z,11.65
2023-03-16T02:28:33.166Z,12.60
2023-03-16T02:38:29.565Z,13.00
2023-03-16T02:41:01.447Z,12.03
2023-03-16T02:43:35.484Z,12.40
2023-03-16T02:46:14.810Z,12.67
2023-03-16T02:51:15.001Z,11.83
2023-03-16T02:53:43.144Z,12.70
2023-03-16T02:56:11.886Z,12.17
2023-03-16T02:58:41.765Z,13.37
2023-03-16T03:01:17.104Z,12.77
2023-03-16T03:03:45.430Z,13.10
2023-03-16T03:06:13.573Z,13.07
2023-03-16T03:08:42.648Z,12.60
2023-03-16T03:11:11.255Z,12.00
2023-03-16T03:13:39.946Z,14.87
2023-03-16T03:16:16.199Z,12.47
2023-03-16T03:18:48.926Z,13.13
2023-03-16T03:21:17.441Z,11.50
2023-03-16T03:23:50.043Z,12.03
2023-03-16T03:26:21.059Z,11.90
2023-03-16T03:28:52.519Z,12.47
2023-03-16T03:31:23.937Z,11.20
2023-03-16T03:33:57.606Z,13.20
2023-03-16T03:36:25.812Z,12.23
2023-03-16T03:38:54.821Z,12.30
2023-03-16T03:41:23.604Z,11.93
2023-03-16T03:43:53.512Z,12.00
2023-03-16T03:46:23.313Z,12.93
2023-03-16T03:48:52.173Z,11.77
2023-03-16T03:51:20.452Z,11.90
2023-03-16T03:54:03.395Z,11.70
2023-03-16T03:56:45.559Z,11.77
2023-03-16T03:59:17.228Z,11.80
2023-03-16T04:02:04.635Z,12.80
2023-03-16T04:04:50.776Z,12.77
2023-03-16T04:07:19.260Z,12.90
2023-03-16T04:09:48.671Z,12.70
2023-03-16T04:12:25.376Z,12.77
2023-03-16T04:14:54.301Z,13.23
2023-03-16T04:17:25.532Z,12.67
2023-03-16T04:19:55.691Z,12.40
2023-03-16T04:22:24.523Z,12.43
2023-03-16T04:24:53.265Z,12.60
2023-03-16T04:27:23.289Z,12.50
2023-03-16T04:29:55.744Z,12.73
2023-03-16T04:32:26.425Z,13.90
2023-03-16T04:34:56.522Z,12.43
2023-03-16T04:37:34.481Z,13.13
2023-03-16T04:40:11.013Z,12.97
2023-03-16T04:42:39.963Z,12.27
2023-03-16T04:45:11.182Z,12.73
2023-03-16T04:47:41.359Z,13.30
2023-03-16T04:50:12.121Z,13.67
2023-03-16T04:52:41.874Z,12.33
2023-03-16T04:55:10.397Z,12.43
2023-03-16T04:57:39.107Z,12.83
2023-03-16T05:00:11.686Z,15.50
2023-03-16T05:02:49.134Z,13.03
2023-03-16T05:05:17.830Z,13.70
2023-03-16T05:07:46.522Z,12.03
2023-03-16T05:10:18.808Z,12.20
2023-03-16T05:12:48.109Z,12.33
2023-03-16T05:15:16.711Z,11.60
2023-03-16T05:17:48.633Z,13.27
2023-03-16T05:20:17.372Z,11.63
2023-03-16T05:22:52.769Z,13.03
2023-03-16T05:25:30.621Z,12.33
2023-03-16T05:28:03.008Z,12.20
2023-03-16T05:30:54.109Z,12.43
2023-03-16T05:33:28.359Z,12.17
2023-03-16T05:36:03.803Z,12.10
2023-03-16T05:38:32.855Z,12.40
2023-03-16T05:41:05.947Z,12.40
2023-03-16T05:43:59.084Z,12.27
2023-03-16T05:46:33.419Z,11.17
2023-03-16T05:49:05.476Z,12.23
2023-03-16T05:51:34.198Z,10.40
2023-03-16T05:54:04.935Z,10.93
2023-03-16T05:56:40.217Z,10.53
2023-03-16T05:59:08.752Z,10.97
2023-03-16T06:01:37.341Z,10.77
2023-03-16T06:04:07.819Z,11.07
2023-03-16T06:06:40.998Z,9.90
2023-03-16T06:09:17.750Z,10.37
2023-03-16T06:11:46.064Z,9.83
2023-03-16T06:14:16.802Z,9.90
2023-03-16T06:16:46.069Z,11.10
2023-03-16T06:19:17.263Z,10.47
2023-03-16T06:21:47.543Z,9.90
2023-03-16T06:24:16.674Z,11.20
2023-03-16T06:26:44.787Z,11.77
2023-03-16T06:29:14.586Z,11.23
2023-03-16T06:31:44.084Z,10.80
2023-03-16T06:34:13.078Z,10.50
2023-03-16T06:36:44.382Z,10.20
2023-03-16T06:39:14.708Z,10.30
2023-03-16T06:41:46.927Z,9.40
2023-03-16T06:44:17.615Z,9.97
2023-03-16T06:46:59.297Z,8.93
